sensor_id;sensor_type;location;lat;lon;timestamp;pressure;altitude;pressure_sealevel;temperature;humidity
35507;BME280;36461;52.018;21.036;2022-10-31T00:01:21;100687.19;;;7.81;88.93
35507;BME280;36461;52.018;21.036;2022-10-31T00:03:49;100683.37;;;7.78;88.93
35507;BME280;36461;52.018;21.036;2022-10-31T00:06:16;100682.95;;;7.77;89.05
35507;BME280;36461;52.018;21.036;2022-10-31T00:08:54;100682.58;;;7.73;89.04
35507;BME280;36461;52.018;21.036;2022-10-31T00:11:24;100689.09;;;7.70;89.15
35507;BME280;36461;52.018;21.036;2022-10-31T00:13:51;100686.57;;;7.67;89.18
35507;BME280;36461;52.018;21.036;2022-10-31T00:16:20;100688.31;;;7.65;89.20
35507;BME280;36461;52.018;21.036;2022-10-31T00:18:49;100691.80;;;7.62;89.25
35507;BME280;36461;52.018;21.036;2022-10-31T00:21:17;100684.06;;;7.61;89.19
35507;BME280;36461;52.018;21.036;2022-10-31T00:23:45;100683.67;;;7.58;89.12
35507;BME280;36461;52.018;21.036;2022-10-31T00:26:12;100681.56;;;7.54;89.14
35507;BME280;36461;52.018;21.036;2022-10-31T00:28:39;100685.92;;;7.52;89.16
35507;BME280;36461;52.018;21.036;2022-10-31T00:31:08;100685.07;;;7.50;89.18
35507;BME280;36461;52.018;21.036;2022-10-31T00:33:37;100686.87;;;7.47;89.20
35507;BME280;36461;52.018;21.036;2022-10-31T00:36:05;100684.73;;;7.45;89.34
35507;BME280;36461;52.018;21.036;2022-10-31T00:38:33;100681.33;;;7.43;89.33
35507;BME280;36461;52.018;21.036;2022-10-31T00:41:00;100682.62;;;7.41;89.27
35507;BME280;36461;52.018;21.036;2022-10-31T00:43:26;100680.95;;;7.37;89.33
35507;BME280;36461;52.018;21.036;2022-10-31T00:45:52;100679.27;;;7.36;89.21
35507;BME280;36461;52.018;21.036;2022-10-31T00:48:19;100678.88;;;7.33;89.27
35507;BME280;36461;52.018;21.036;2022-10-31T00:50:47;100684.05;;;7.33;89.46
35507;BME280;36461;52.018;21.036;2022-10-31T00:53:13;100679.32;;;7.31;89.41
35507;BME280;36461;52.018;21.036;2022-10-31T00:55:40;100678.92;;;7.29;89.37
35507;BME280;36461;52.018;21.036;2022-10-31T00:58:06;100685.86;;;7.27;89.40
35507;BME280;36461;52.018;21.036;2022-10-31T01:00:32;100688.02;;;7.26;89.44
35507;BME280;36461;52.018;21.036;2022-10-31T01:02:59;100683.72;;;7.25;89.42
35507;BME280;36461;52.018;21.036;2022-10-31T01:05:26;100685.48;;;7.21;89.39
35507;BME280;36461;52.018;21.036;2022-10-31T01:07:52;100692.41;;;7.19;89.40
35507;BME280;36461;52.018;21.036;2022-10-31T01:10:19;100691.14;;;7.17;89.43
35507;BME280;36461;52.018;21.036;2022-10-31T01:12:47;100689.87;;;7.14;89.47
35507;BME280;36461;52.018;21.036;2022-10-31T01:15:17;100687.77;;;7.12;89.52
35507;BME280;36461;52.018;21.036;2022-10-31T01:17:46;100693.34;;;7.13;89.58
35507;BME280;36461;52.018;21.036;2022-10-31T01:20:14;100692.06;;;7.13;89.58
35507;BME280;36461;52.018;21.036;2022-10-31T01:22:41;100697.25;;;7.12;89.54
35507;BME280;36461;52.018;21.036;2022-10-31T01:25:08;100689.10;;;7.09;89.52
35507;BME280;36461;52.018;21.036;2022-10-31T01:27:36;100694.70;;;7.07;89.51
35507;BME280;36461;52.018;21.036;2022-10-31T01:30:06;100696.47;;;7.05;89.55
35507;BME280;36461;52.018;21.036;2022-10-31T01:32:33;100696.89;;;7.04;89.65
35507;BME280;36461;52.018;21.036;2022-10-31T01:34:59;100696.05;;;7.04;89.64
35507;BME280;36461;52.018;21.036;2022-10-31T01:37:26;100698.64;;;7.01;89.56
35507;BME280;36461;52.018;21.036;2022-10-31T01:39:52;100699.95;;;6.99;89.60
35507;BME280;36461;52.018;21.036;2022-10-31T01:42:21;100700.43;;;6.97;89.62
35507;BME280;36461;52.018;21.036;2022-10-31T01:44:55;100698.72;;;6.96;89.64
35507;BME280;36461;52.018;21.036;2022-10-31T01:47:30;100694.44;;;6.94;89.67
35507;BME280;36461;52.018;21.036;2022-10-31T01:50:10;100705.23;;;6.90;89.61
35507;BME280;36461;52.018;21.036;2022-10-31T01:52:44;100705.30;;;6.85;89.63
35507;BME280;36461;52.018;21.036;2022-10-31T01:57:50;100707.91;;;6.81;89.76
35507;BME280;36461;52.018;21.036;2022-10-31T02:00:19;100703.65;;;6.80;89.74
35507;BME280;36461;52.018;21.036;2022-10-31T02:02:48;100701.98;;;6.76;89.67
35507;BME280;36461;52.018;21.036;2022-10-31T02:05:18;100704.55;;;6.74;89.76
35507;BME280;36461;52.018;21.036;2022-10-31T02:10:36;100713.20;;;6.70;89.75
35507;BME280;36461;52.018;21.036;2022-10-31T02:13:06;100712.38;;;6.68;89.86
35507;BME280;36461;52.018;21.036;2022-10-31T02:15:37;100713.69;;;6.66;89.94
35507;BME280;36461;52.018;21.036;2022-10-31T02:18:05;100710.23;;;6.66;89.97
35507;BME280;36461;52.018;21.036;2022-10-31T02:30:14;100704.30;;;6.58;90.13
35507;BME280;36461;52.018;21.036;2022-10-31T02:33:10;100703.48;;;6.55;90.27
35507;BME280;36461;52.018;21.036;2022-10-31T02:36:28;100700.48;;;6.54;90.29
35507;BME280;36461;52.018;21.036;2022-10-31T02:38:51;100701.81;;;6.51;90.27
35507;BME280;36461;52.018;21.036;2022-10-31T02:41:47;100702.67;;;6.50;90.36
35507;BME280;36461;52.018;21.036;2022-10-31T02:47:06;100702.28;;;6.46;90.46
35507;BME280;36461;52.018;21.036;2022-10-31T02:49:54;100707.02;;;6.45;90.49
35507;BME280;36461;52.018;21.036;2022-10-31T02:52:21;100706.17;;;6.45;90.52
35507;BME280;36461;52.018;21.036;2022-10-31T02:54:50;100704.45;;;6.44;90.49
35507;BME280;36461;52.018;21.036;2022-10-31T02:57:21;100705.77;;;6.42;90.48
35507;BME280;36461;52.018;21.036;2022-10-31T02:59:54;100698.89;;;6.41;90.43
35507;BME280;36461;52.018;21.036;2022-10-31T03:09:12;100705.36;;;6.40;90.44
35507;BME280;36461;52.018;21.036;2022-10-31T03:11:18;100714.38;;;6.40;90.50
35507;BME280;36461;52.018;21.036;2022-10-31T03:13:56;100724.27;;;6.38;90.46
35507;BME280;36461;52.018;21.036;2022-10-31T03:16:47;100720.85;;;6.38;90.50
35507;BME280;36461;52.018;21.036;2022-10-31T03:19:19;100723.00;;;6.37;90.51
35507;BME280;36461;52.018;21.036;2022-10-31T03:22:00;100726.01;;;6.38;90.63
35507;BME280;36461;52.018;21.036;2022-10-31T03:24:36;100732.85;;;6.39;90.60
35507;BME280;36461;52.018;21.036;2022-10-31T03:27:06;100739.77;;;6.37;90.43
35507;BME280;36461;52.018;21.036;2022-10-31T03:29:36;100738.91;;;6.35;90.42
35507;BME280;36461;52.018;21.036;2022-10-31T03:32:27;100738.95;;;6.32;90.37
35507;BME280;36461;52.018;21.036;2022-10-31T03:34:47;100743.25;;;6.30;90.39
35507;BME280;36461;52.018;21.036;2022-10-31T03:37:18;100741.56;;;6.29;90.50
35507;BME280;36461;52.018;21.036;2022-10-31T03:39:47;100745.00;;;6.28;90.57
35507;BME280;36461;52.018;21.036;2022-10-31T03:42:25;100753.56;;;6.30;90.56
35507;BME280;36461;52.018;21.036;2022-10-31T03:45:11;100751.86;;;6.30;90.71
35507;BME280;36461;52.018;21.036;2022-10-31T03:47:42;100753.57;;;6.31;90.72
35507;BME280;36461;52.018;21.036;2022-10-31T03:50:11;100744.12;;;6.30;90.74
35507;BME280;36461;52.018;21.036;2022-10-31T03:52:48;100755.31;;;6.28;90.73
35507;BME280;36461;52.018;21.036;2022-10-31T03:55:22;100750.17;;;6.26;90.76
35507;BME280;36461;52.018;21.036;2022-10-31T03:58:02;100753.18;;;6.27;90.84
35507;BME280;36461;52.018;21.036;2022-10-31T04:00:31;100747.19;;;6.24;90.74
35507;BME280;36461;52.018;21.036;2022-10-31T04:03:05;100747.22;;;6.20;90.73
35507;BME280;36461;52.018;21.036;2022-10-31T04:05:37;100757.53;;;6.20;90.75
35507;BME280;36461;52.018;21.036;2022-10-31T04:08:07;100749.39;;;6.18;90.70
35507;BME280;36461;52.018;21.036;2022-10-31T04:10:38;100747.67;;;6.17;90.79
35507;BME280;36461;52.018;21.036;2022-10-31T04:13:10;100749.41;;;6.16;90.81
35507;BME280;36461;52.018;21.036;2022-10-31T04:15:45;100749.81;;;6.16;90.87
35507;BME280;36461;52.018;21.036;2022-10-31T04:18:12;100745.97;;;6.14;90.87
35507;BME280;36461;52.018;21.036;2022-10-31T04:20:41;100742.95;;;6.15;90.91
35507;BME280;36461;52.018;21.036;2022-10-31T04:23:16;100754.55;;;6.15;90.79
35507;BME280;36461;52.018;21.036;2022-10-31T04:25:40;100755.85;;;6.13;90.90
35507;BME280;36461;52.018;21.036;2022-10-31T04:28:06;100746.41;;;6.14;90.91
35507;BME280;36461;52.018;21.036;2022-10-31T04:30:33;100749.41;;;6.13;90.84
35507;BME280;36461;52.018;21.036;2022-10-31T04:32:59;100746.42;;;6.11;90.76
35507;BME280;36461;52.018;21.036;2022-10-31T04:35:26;100752.84;;;6.12;90.84
35507;BME280;36461;52.018;21.036;2022-10-31T04:37:54;100753.31;;;6.10;90.81
35507;BME280;36461;52.018;21.036;2022-10-31T04:40:20;100751.17;;;6.07;90.79
35507;BME280;36461;52.018;21.036;2022-10-31T04:42:54;100746.90;;;6.04;90.74
35507;BME280;36461;52.018;21.036;2022-10-31T04:45:21;100750.77;;;6.04;90.80
35507;BME280;36461;52.018;21.036;2022-10-31T04:47:49;100754.23;;;6.03;90.80
35507;BME280;36461;52.018;21.036;2022-10-31T04:50:15;100751.64;;;6.01;90.89
35507;BME280;36461;52.018;21.036;2022-10-31T04:52:43;100751.66;;;6.00;90.83
35507;BME280;36461;52.018;21.036;2022-10-31T04:55:13;100754.70;;;5.98;90.85
35507;BME280;36461;52.018;21.036;2022-10-31T04:57:58;100754.68;;;5.96;90.92
35507;BME280;36461;52.018;21.036;2022-10-31T05:00:24;100758.53;;;5.95;90.95
35507;BME280;36461;52.018;21.036;2022-10-31T05:02:56;100768.42;;;5.92;90.97
35507;BME280;36461;52.018;21.036;2022-10-31T05:05:26;100766.30;;;5.90;91.18
35507;BME280;36461;52.018;21.036;2022-10-31T05:07:55;100768.04;;;5.90;91.22
35507;BME280;36461;52.018;21.036;2022-10-31T05:10:26;100769.33;;;5.90;91.20
35507;BME280;36461;52.018;21.036;2022-10-31T05:12:57;100775.73;;;5.93;91.29
35507;BME280;36461;52.018;21.036;2022-10-31T05:15:43;100779.58;;;5.96;91.31
35507;BME280;36461;52.018;21.036;2022-10-31T05:18:17;100781.73;;;5.99;91.34
35507;BME280;36461;52.018;21.036;2022-10-31T05:21:02;100786.45;;;6.03;91.39
35507;BME280;36461;52.018;21.036;2022-10-31T05:23:36;100783.88;;;6.03;91.32
35507;BME280;36461;52.018;21.036;2022-10-31T05:26:04;100784.27;;;6.07;91.43
35507;BME280;36461;52.018;21.036;2022-10-31T05:28:32;100786.38;;;6.09;91.29
35507;BME280;36461;52.018;21.036;2022-10-31T05:30:59;100780.38;;;6.10;91.27
35507;BME280;36461;52.018;21.036;2022-10-31T05:33:25;100778.62;;;6.15;91.37
35507;BME280;36461;52.018;21.036;2022-10-31T05:35:53;100783.74;;;6.18;91.47
35507;BME280;36461;52.018;21.036;2022-10-31T05:38:25;100781.14;;;6.23;91.65
35507;BME280;36461;52.018;21.036;2022-10-31T05:40:56;100784.98;;;6.26;91.63
35507;BME280;36461;52.018;21.036;2022-10-31T05:43:30;100781.09;;;6.28;91.62
35507;BME280;36461;52.018;21.036;2022-10-31T05:45:57;100789.66;;;6.30;91.64
35507;BME280;36461;52.018;21.036;2022-10-31T05:48:28;100785.78;;;6.30;91.54
35507;BME280;36461;52.018;21.036;2022-10-31T05:51:12;100789.22;;;6.32;91.54
35507;BME280;36461;52.018;21.036;2022-10-31T05:53:38;100780.20;;;6.32;91.54
35507;BME280;36461;52.018;21.036;2022-10-31T05:56:05;100776.77;;;6.33;91.59
35507;BME280;36461;52.018;21.036;2022-10-31T05:58:32;100789.62;;;6.36;91.68
35507;BME280;36461;52.018;21.036;2022-10-31T06:01:01;100782.31;;;6.37;91.70
35507;BME280;36461;52.018;21.036;2022-10-31T06:03:27;100788.30;;;6.39;91.79
35507;BME280;36461;52.018;21.036;2022-10-31T06:05:57;100794.73;;;6.42;91.80
35507;BME280;36461;52.018;21.036;2022-10-31T06:08:25;100790.41;;;6.44;91.89
35507;BME280;36461;52.018;21.036;2022-10-31T06:10:54;100796.38;;;6.49;92.05
35507;BME280;36461;52.018;21.036;2022-10-31T06:13:22;100792.05;;;6.54;92.08
35507;BME280;36461;52.018;21.036;2022-10-31T06:15:53;100793.30;;;6.58;92.09
35507;BME280;36461;52.018;21.036;2022-10-31T06:18:21;100793.69;;;6.62;92.16
35507;BME280;36461;52.018;21.036;2022-10-31T06:20:50;100796.18;;;6.71;92.48
35507;BME280;36461;52.018;21.036;2022-10-31T06:23:18;100799.53;;;6.79;92.49
35507;BME280;36461;52.018;21.036;2022-10-31T06:25:49;100798.20;;;6.85;92.46
35507;BME280;36461;52.018;21.036;2022-10-31T06:28:16;100804.17;;;6.91;92.38
35507;BME280;36461;52.018;21.036;2022-10-31T06:30:47;100803.65;;;6.99;92.37
35507;BME280;36461;52.018;21.036;2022-10-31T06:33:15;100804.89;;;7.05;92.29
35507;BME280;36461;52.018;21.036;2022-10-31T06:35:47;100804.38;;;7.10;92.20
35507;BME280;36461;52.018;21.036;2022-10-31T06:38:15;100803.08;;;7.13;92.17
35507;BME280;36461;52.018;21.036;2022-10-31T06:40:42;100804.30;;;7.18;92.04
35507;BME280;36461;52.018;21.036;2022-10-31T06:43:22;100809.86;;;7.20;92.01
35507;BME280;36461;52.018;21.036;2022-10-31T06:45:50;100807.64;;;7.26;92.17
35507;BME280;36461;52.018;21.036;2022-10-31T06:48:24;100799.37;;;7.36;92.42
35507;BME280;36461;52.018;21.036;2022-10-31T06:50:59;100806.11;;;7.46;92.48
35507;BME280;36461;52.018;21.036;2022-10-31T06:53:27;100807.28;;;7.55;92.41
35507;BME280;36461;52.018;21.036;2022-10-31T06:55:57;100805.90;;;7.63;92.51
35507;BME280;36461;52.018;21.036;2022-10-31T06:58:24;100803.22;;;7.71;92.49
35507;BME280;36461;52.018;21.036;2022-10-31T07:00:52;100805.23;;;7.81;92.51
35507;BME280;36461;52.018;21.036;2022-10-31T07:03:18;100811.14;;;7.89;92.37
35507;BME280;36461;52.018;21.036;2022-10-31T07:05:46;100807.16;;;7.97;92.34
35507;BME280;36461;52.018;21.036;2022-10-31T07:08:14;100808.77;;;8.04;92.27
35507;BME280;36461;52.018;21.036;2022-10-31T07:10:42;100809.98;;;8.10;92.15
35507;BME280;36461;52.018;21.036;2022-10-31T07:13:13;100809.48;;;8.15;92.10
35507;BME280;36461;52.018;21.036;2022-10-31T07:15:43;100810.23;;;8.20;92.02
35507;BME280;36461;52.018;21.036;2022-10-31T07:18:11;100811.02;;;8.26;92.01
35507;BME280;36461;52.018;21.036;2022-10-31T07:20:39;100807.50;;;8.30;91.90
35507;BME280;36461;52.018;21.036;2022-10-31T07:23:05;100813.94;;;8.33;91.80
35507;BME280;36461;52.018;21.036;2022-10-31T07:25:32;100807.00;;;8.35;91.83
35507;BME280;36461;52.018;21.036;2022-10-31T07:28:03;100814.70;;;8.39;91.97
35507;BME280;36461;52.018;21.036;2022-10-31T07:30:30;100810.31;;;8.45;91.93
35507;BME280;36461;52.018;21.036;2022-10-31T07:32:56;100809.41;;;8.49;92.02
35507;BME280;36461;52.018;21.036;2022-10-31T07:35:27;100811.00;;;8.56;92.09
35507;BME280;36461;52.018;21.036;2022-10-31T07:37:57;100813.08;;;8.61;92.15
35507;BME280;36461;52.018;21.036;2022-10-31T07:40:27;100819.87;;;8.67;92.07
35507;BME280;36461;52.018;21.036;2022-10-31T07:42:57;100815.89;;;8.73;92.39
35507;BME280;36461;52.018;21.036;2022-10-31T07:45:43;100820.48;;;8.81;92.42
35507;BME280;36461;52.018;21.036;2022-10-31T07:48:34;100825.09;;;8.89;92.71
35507;BME280;36461;52.018;21.036;2022-10-31T07:51:11;100824.85;;;9.02;92.76
35507;BME280;36461;52.018;21.036;2022-10-31T07:53:57;100826.81;;;9.12;92.76
35507;BME280;36461;52.018;21.036;2022-10-31T07:56:25;100823.63;;;9.21;93.19
35507;BME280;36461;52.018;21.036;2022-10-31T07:58:52;100826.78;;;9.36;93.54
35507;BME280;36461;52.018;21.036;2022-10-31T08:01:18;100823.09;;;9.48;93.46
35507;BME280;36461;52.018;21.036;2022-10-31T08:03:47;100817.64;;;9.62;93.49
35507;BME280;36461;52.018;21.036;2022-10-31T08:06:32;100823.43;;;9.73;93.55
35507;BME280;36461;52.018;21.036;2022-10-31T08:09:04;100822.19;;;9.91;93.61
35507;BME280;36461;52.018;21.036;2022-10-31T08:11:31;100821.02;;;10.04;93.46
35507;BME280;36461;52.018;21.036;2022-10-31T08:13:57;100821.57;;;10.17;93.39
35507;BME280;36461;52.018;21.036;2022-10-31T08:16:24;100821.77;;;10.28;93.10
35507;BME280;36461;52.018;21.036;2022-10-31T08:18:54;100825.95;;;10.35;93.00
35507;BME280;36461;52.018;21.036;2022-10-31T08:21:22;100827.06;;;10.43;92.80
35507;BME280;36461;52.018;21.036;2022-10-31T08:23:49;100831.86;;;10.58;92.88
35507;BME280;36461;52.018;21.036;2022-10-31T08:26:17;100830.83;;;10.65;92.45
35507;BME280;36461;52.018;21.036;2022-10-31T08:28:46;100837.33;;;10.65;91.62
35507;BME280;36461;52.018;21.036;2022-10-31T08:31:13;100833.47;;;10.64;91.66
35507;BME280;36461;52.018;21.036;2022-10-31T08:33:39;100840.77;;;10.66;91.72
35507;BME280;36461;52.018;21.036;2022-10-31T08:36:17;100832.65;;;10.78;92.10
35507;BME280;36461;52.018;21.036;2022-10-31T08:38:53;100835.52;;;10.85;91.96
35507;BME280;36461;52.018;21.036;2022-10-31T08:41:19;100840.52;;;10.93;91.53
35507;BME280;36461;52.018;21.036;2022-10-31T08:43:47;100843.45;;;10.96;91.67
35507;BME280;36461;52.018;21.036;2022-10-31T08:46:15;100845.38;;;11.05;91.75
35507;BME280;36461;52.018;21.036;2022-10-31T08:48:43;100839.00;;;11.17;91.96
35507;BME280;36461;52.018;21.036;2022-10-31T08:51:10;100842.09;;;11.30;91.80
35507;BME280;36461;52.018;21.036;2022-10-31T08:53:37;100840.85;;;11.44;91.87
35507;BME280;36461;52.018;21.036;2022-10-31T08:56:11;100846.56;;;11.56;91.63
35507;BME280;36461;52.018;21.036;2022-10-31T08:58:37;100851.52;;;11.64;91.46
35507;BME280;36461;52.018;21.036;2022-10-31T09:01:04;100853.55;;;11.69;91.39
35507;BME280;36461;52.018;21.036;2022-10-31T09:03:31;100855.45;;;11.79;91.38
35507;BME280;36461;52.018;21.036;2022-10-31T09:06:01;100861.98;;;11.92;91.09
35507;BME280;36461;52.018;21.036;2022-10-31T09:08:30;100855.20;;;12.02;90.93
35507;BME280;36461;52.018;21.036;2022-10-31T09:10:58;100854.92;;;12.11;90.80
35507;BME280;36461;52.018;21.036;2022-10-31T09:13:26;100857.52;;;12.26;90.73
35507;BME280;36461;52.018;21.036;2022-10-31T09:16:05;100858.78;;;12.41;90.70
35507;BME280;36461;52.018;21.036;2022-10-31T09:18:34;100851.81;;;12.55;90.33
35507;BME280;36461;52.018;21.036;2022-10-31T09:21:00;100853.70;;;12.63;90.04
35507;BME280;36461;52.018;21.036;2022-10-31T09:23:30;100857.25;;;12.74;89.78
35507;BME280;36461;52.018;21.036;2022-10-31T09:26:00;100852.64;;;12.69;88.96
35507;BME280;36461;52.018;21.036;2022-10-31T09:28:31;100856.06;;;12.71;88.97
35507;BME280;36461;52.018;21.036;2022-10-31T09:31:04;100854.76;;;12.71;88.31
35507;BME280;36461;52.018;21.036;2022-10-31T09:33:49;100859.37;;;12.76;88.91
35507;BME280;36461;52.018;21.036;2022-10-31T09:36:20;100863.31;;;12.88;88.69
35507;BME280;36461;52.018;21.036;2022-10-31T09:38:46;100862.84;;;12.88;88.27
35507;BME280;36461;52.018;21.036;2022-10-31T09:41:19;100857.75;;;12.85;88.09
35507;BME280;36461;52.018;21.036;2022-10-31T09:44:10;100858.34;;;12.93;87.73
35507;BME280;36461;52.018;21.036;2022-10-31T09:52:00;100856.57;;;12.94;87.57
35507;BME280;36461;52.018;21.036;2022-10-31T09:54:36;100856.38;;;13.00;87.82
35507;BME280;36461;52.018;21.036;2022-10-31T09:57:05;100852.41;;;13.02;87.72
35507;BME280;36461;52.018;21.036;2022-10-31T09:59:38;100859.78;;;13.14;88.02
35507;BME280;36461;52.018;21.036;2022-10-31T10:02:13;100856.64;;;13.30;88.01
35507;BME280;36461;52.018;21.036;2022-10-31T10:16:47;100866.38;;;13.38;87.01
35507;BME280;36461;52.018;21.036;2022-10-31T10:22:40;100859.12;;;13.46;86.32
35507;BME280;36461;52.018;21.036;2022-10-31T10:25:24;100860.20;;;13.40;86.45
35507;BME280;36461;52.018;21.036;2022-10-31T10:30:48;100859.40;;;13.50;86.89
35507;BME280;36461;52.018;21.036;2022-10-31T10:33:24;100857.88;;;13.56;86.91
35507;BME280;36461;52.018;21.036;2022-10-31T10:35:56;100853.78;;;13.73;87.04
35507;BME280;36461;52.018;21.036;2022-10-31T10:38:27;100848.48;;;13.86;86.71
35507;BME280;36461;52.018;21.036;2022-10-31T10:40:56;100847.94;;;14.00;86.78
35507;BME280;36461;52.018;21.036;2022-10-31T10:43:33;100853.50;;;14.03;86.14
35507;BME280;36461;52.018;21.036;2022-10-31T10:46:16;100849.80;;;14.08;86.11
35507;BME280;36461;52.018;21.036;2022-10-31T10:49:38;100847.44;;;14.02;85.31
35507;BME280;36461;52.018;21.036;2022-10-31T10:57:57;100859.00;;;14.07;85.80
35507;BME280;36461;52.018;21.036;2022-10-31T11:00:29;100856.72;;;14.09;85.54
35507;BME280;36461;52.018;21.036;2022-10-31T11:03:02;100857.80;;;14.16;85.41
35507;BME280;36461;52.018;21.036;2022-10-31T11:08:29;100847.09;;;14.44;85.80
35507;BME280;36461;52.018;21.036;2022-10-31T11:11:03;100841.48;;;14.53;85.42
35507;BME280;36461;52.018;21.036;2022-10-31T11:13:33;100834.24;;;14.60;85.33
35507;BME280;36461;52.018;21.036;2022-10-31T11:16:09;100832.76;;;14.65;85.07
35507;BME280;36461;52.018;21.036;2022-10-31T11:18:42;100834.06;;;14.65;84.83
35507;BME280;36461;52.018;21.036;2022-10-31T11:21:21;100829.34;;;14.63;84.76
35507;BME280;36461;52.018;21.036;2022-10-31T11:26:38;100829.09;;;14.58;84.51
35507;BME280;36461;52.018;21.036;2022-10-31T11:29:12;100829.31;;;14.64;84.80
35507;BME280;36461;52.018;21.036;2022-10-31T11:31:41;100824.94;;;14.75;84.97
35507;BME280;36461;52.018;21.036;2022-10-31T11:34:34;100824.60;;;14.72;84.45
35507;BME280;36461;52.018;21.036;2022-10-31T11:37:09;100830.16;;;14.75;84.56
35507;BME280;36461;52.018;21.036;2022-10-31T11:39:49;100821.33;;;14.67;84.23
35507;BME280;36461;52.018;21.036;2022-10-31T11:42:21;100815.80;;;14.53;84.03
35507;BME280;36461;52.018;21.036;2022-10-31T11:44:50;100828.61;;;14.38;84.04
35507;BME280;36461;52.018;21.036;2022-10-31T11:47:26;100833.53;;;14.24;84.29
35507;BME280;36461;52.018;21.036;2022-10-31T11:49:56;100831.28;;;14.15;84.49
35507;BME280;36461;52.018;21.036;2022-10-31T11:52:25;100833.02;;;14.04;84.79
35507;BME280;36461;52.018;21.036;2022-10-31T11:54:57;100831.04;;;13.99;85.20
35507;BME280;36461;52.018;21.036;2022-10-31T11:57:31;100833.31;;;13.96;85.45
35507;BME280;36461;52.018;21.036;2022-10-31T12:00:01;100832.14;;;13.93;85.65
35507;BME280;36461;52.018;21.036;2022-10-31T12:02:31;100833.61;;;13.88;85.70
35507;BME280;36461;52.018;21.036;2022-10-31T12:05:22;100834.64;;;13.84;85.94
35507;BME280;36461;52.018;21.036;2022-10-31T12:07:37;100834.30;;;13.82;86.12
35507;BME280;36461;52.018;21.036;2022-10-31T12:10:09;100829.27;;;13.77;86.35
35507;BME280;36461;52.018;21.036;2022-10-31T12:15:46;100838.96;;;13.73;86.64
35507;BME280;36461;52.018;21.036;2022-10-31T12:18:31;100835.11;;;13.72;86.83
35507;BME280;36461;52.018;21.036;2022-10-31T12:24:04;100834.34;;;13.70;87.10
35507;BME280;36461;52.018;21.036;2022-10-31T12:29:37;100825.83;;;13.65;87.30
35507;BME280;36461;52.018;21.036;2022-10-31T12:44:05;100813.81;;;13.61;88.01
35507;BME280;36461;52.018;21.036;2022-10-31T12:49:48;100815.48;;;13.73;88.11
35507;BME280;36461;52.018;21.036;2022-10-31T12:58:34;100821.78;;;13.80;88.23
35507;BME280;36461;52.018;21.036;2022-10-31T13:04:02;100821.86;;;13.88;88.29
35507;BME280;36461;52.018;21.036;2022-10-31T13:06:43;100823.07;;;13.91;88.10
35507;BME280;36461;52.018;21.036;2022-10-31T13:09:22;100826.98;;;13.91;88.15
35507;BME280;36461;52.018;21.036;2022-10-31T13:11:53;100823.91;;;13.92;87.96
35507;BME280;36461;52.018;21.036;2022-10-31T13:14:39;100822.14;;;13.92;87.95
35507;BME280;36461;52.018;21.036;2022-10-31T13:17:34;100820.80;;;13.94;87.86
35507;BME280;36461;52.018;21.036;2022-10-31T13:20:19;100818.95;;;13.96;87.93
35507;BME280;36461;52.018;21.036;2022-10-31T13:22:51;100816.91;;;13.92;87.70
35507;BME280;36461;52.018;21.036;2022-10-31T13:25:23;100814.69;;;13.83;87.95
35507;BME280;36461;52.018;21.036;2022-10-31T13:28:05;100823.63;;;13.88;88.34
35507;BME280;36461;52.018;21.036;2022-10-31T13:30:52;100823.50;;;13.91;88.29
35507;BME280;36461;52.018;21.036;2022-10-31T13:33:29;100813.53;;;13.90;88.62
35507;BME280;36461;52.018;21.036;2022-10-31T13:36:21;100815.91;;;13.97;88.59
35507;BME280;36461;52.018;21.036;2022-10-31T13:38:54;100806.47;;;13.92;88.43
35507;BME280;36461;52.018;21.036;2022-10-31T13:41:47;100815.11;;;13.95;88.84
35507;BME280;36461;52.018;21.036;2022-10-31T13:44:23;100811.87;;;14.00;88.88
35507;BME280;36461;52.018;21.036;2022-10-31T13:46:59;100822.24;;;14.01;88.86
35507;BME280;36461;52.018;21.036;2022-10-31T13:54:42;100821.06;;;13.98;88.88
35507;BME280;36461;52.018;21.036;2022-10-31T13:59:56;100828.97;;;13.97;88.98
35507;BME280;36461;52.018;21.036;2022-10-31T14:02:34;100823.68;;;13.98;89.24
35507;BME280;36461;52.018;21.036;2022-10-31T14:05:05;100821.84;;;14.00;89.27
35507;BME280;36461;52.018;21.036;2022-10-31T14:07:32;100820.67;;;13.97;89.25
35507;BME280;36461;52.018;21.036;2022-10-31T14:10:03;100816.91;;;13.92;89.18
35507;BME280;36461;52.018;21.036;2022-10-31T14:12:44;100813.66;;;13.87;89.23
35507;BME280;36461;52.018;21.036;2022-10-31T14:15:23;100810.25;;;13.85;89.36
35507;BME280;36461;52.018;21.036;2022-10-31T14:18:01;100814.42;;;13.79;89.20
35507;BME280;36461;52.018;21.036;2022-10-31T14:20:40;100812.87;;;13.73;89.44
35507;BME280;36461;52.018;21.036;2022-10-31T14:26:17;100809.66;;;13.55;89.32
35507;BME280;36461;52.018;21.036;2022-10-31T14:28:46;100810.03;;;13.46;89.49
35507;BME280;36461;52.018;21.036;2022-10-31T14:46:02;100783.78;;;13.13;90.93
35507;BME280;36461;52.018;21.036;2022-10-31T14:48:48;100783.78;;;13.13;90.93
35507;BME280;36461;52.018;21.036;2022-10-31T14:51:33;100776.61;;;13.08;91.06
35507;BME280;36461;52.018;21.036;2022-10-31T14:54:05;100789.63;;;13.20;91.48
35507;BME280;36461;52.018;21.036;2022-10-31T14:56:34;100799.56;;;13.22;91.46
35507;BME280;36461;52.018;21.036;2022-10-31T14:59:09;100798.81;;;13.18;91.24
35507;BME280;36461;52.018;21.036;2022-10-31T15:01:39;100796.45;;;13.12;91.26
35507;BME280;36461;52.018;21.036;2022-10-31T15:04:24;100787.19;;;13.03;91.42
35507;BME280;36461;52.018;21.036;2022-10-31T15:09:36;100793.48;;;12.98;91.66
35507;BME280;36461;52.018;21.036;2022-10-31T15:12:25;100793.97;;;12.96;91.94